Time;durP1;ratioP1;P1;durP2;ratioP2;P2;SDS_P1;SDS_P2;PMS_P1;PMS_P2;Temp;Humidity;BMP_temperature;BMP_pressure;BME280_temperature;BME280_humidity;BME280_pressure;Samples;Min_cycle;Max_cycle;Signal;HPM_P1;HPM_P2
2022/05/15 00:02:52;;;;;;;;;;;17.70;90.70;;;;;;4450940;32;44208;-75
2022/05/15 00:05:28;;;;;;;;;;;17.70;90.60;;;;;;4437028;32;43749;-75
2022/05/15 00:08:07;;;;;;;;;;;17.70;90.60;;;;;;4437126;32;43668;-74
2022/05/15 00:10:46;;;;;;;;;;;17.60;90.00;;;;;;4436868;32;42917;-75
2022/05/15 00:13:16;;;;;;;;;;;17.60;90.10;;;;;;4437804;32;19996;-75
2022/05/15 00:15:55;;;;;;;;;;;17.50;90.10;;;;;;4437065;32;44328;-75
2022/05/15 00:18:32;;;;;;;;;;;17.50;90.40;;;;;;4450677;32;41859;-74
2022/05/15 00:21:14;;;;;;;;;;;17.50;90.30;;;;;;4450977;32;45875;-74
2022/05/15 00:23:56;;;;;;;;;;;17.40;89.90;;;;;;4436684;32;42883;-75
2022/05/15 00:26:34;;;;;;;;;;;17.40;90.10;;;;;;4436543;32;42080;-74
2022/05/15 00:29:15;;;;;;;;;;;17.40;90.20;;;;;;4452334;32;43905;-75
2022/05/15 00:31:53;;;;;;;;;;;17.40;90.10;;;;;;4453847;32;43677;-74
2022/05/15 00:34:34;;;;;;;;;;;17.30;90.10;;;;;;4453305;32;42916;-74
2022/05/15 00:37:13;;;;;;;;;;;17.30;90.10;;;;;;4453997;32;43318;-75
2022/05/15 00:39:57;;;;;;;;;;;17.30;90.50;;;;;;4439616;32;43480;-75
2022/05/15 00:42:35;;;;;;;;;;;17.30;90.60;;;;;;4453076;32;43676;-75
2022/05/15 00:45:03;;;;;;;;;;;17.30;90.70;;;;;;4453236;32;42493;-75
2022/05/15 00:47:36;;;;;;;;;;;17.30;90.50;;;;;;4439163;32;44189;-75
2022/05/15 00:50:18;;;;;;;;;;;17.30;90.70;;;;;;4439398;32;42915;-75
2022/05/15 00:52:51;;;;;;;;;;;17.40;90.80;;;;;;4453400;32;44298;-75
2022/05/15 00:55:53;;;;;;;;;;;17.40;90.70;;;;;;4439713;32;43276;-75
2022/05/15 00:58:35;;;;;;;;;;;17.40;90.70;;;;;;4438557;32;44195;-75
2022/05/15 01:01:16;;;;;;;;;;;17.40;90.60;;;;;;4439255;32;43196;-75
2022/05/15 01:03:53;;;;;;;;;;;17.30;90.60;;;;;;4439090;32;42872;-74
2022/05/15 01:06:31;;;;;;;;;;;17.30;90.50;;;;;;4453213;32;43803;-75
2022/05/15 01:09:07;;;;;;;;;;;17.30;90.80;;;;;;4453306;32;43639;-75
2022/05/15 01:11:34;;;;;;;;;;;17.30;90.70;;;;;;4452810;32;43647;-76
2022/05/15 01:14:09;;;;;;;;;;;17.30;90.70;;;;;;4452849;32;42450;-75
2022/05/15 01:16:47;;;;;;;;;;;17.40;90.80;;;;;;4453608;32;20054;-74
2022/05/15 01:19:32;;;;;;;;;;;17.30;90.80;;;;;;4453212;32;43493;-74
2022/05/15 01:22:08;;;;;;;;;;;17.30;90.70;;;;;;4453074;32;43826;-74
2022/05/15 01:24:47;;;;;;;;;;;17.30;90.80;;;;;;4453009;32;43730;-74
2022/05/15 01:27:23;;;;;;;;;;;17.30;90.80;;;;;;4453055;32;43683;-74
2022/05/15 01:30:05;;;;;;;;;;;17.30;90.60;;;;;;4438782;32;44935;-75
2022/05/15 01:32:46;;;;;;;;;;;17.20;90.60;;;;;;4452753;32;42927;-75
2022/05/15 01:35:24;;;;;;;;;;;17.20;90.60;;;;;;4438658;32;42112;-75
2022/05/15 01:38:08;;;;;;;;;;;17.20;90.80;;;;;;4439615;32;45800;-75
2022/05/15 01:40:38;;;;;;;;;;;17.20;90.70;;;;;;4438428;32;43029;-75
2022/05/15 01:43:16;;;;;;;;;;;17.20;90.80;;;;;;4451998;32;43617;-74
2022/05/15 01:45:52;;;;;;;;;;;17.20;90.80;;;;;;4438254;32;43773;-75
2022/05/15 01:48:25;;;;;;;;;;;17.10;90.90;;;;;;4439556;32;19995;-75
2022/05/15 01:51:07;;;;;;;;;;;17.10;90.90;;;;;;4439090;32;43850;-74
2022/05/15 01:53:48;;;;;;;;;;;17.10;90.90;;;;;;4452486;32;42953;-75
2022/05/15 01:56:29;;;;;;;;;;;17.10;91.00;;;;;;4452537;32;44200;-75
2022/05/15 01:59:08;;;;;;;;;;;17.10;90.90;;;;;;4438144;32;43882;-74
2022/05/15 02:01:46;;;;;;;;;;;17.10;91.00;;;;;;4438034;32;42875;-75
2022/05/15 02:04:28;;;;;;;;;;;17.10;91.10;;;;;;4452542;32;44190;-75
2022/05/15 02:07:06;;;;;;;;;;;17.10;91.00;;;;;;4452094;32;42920;-75
2022/05/15 02:09:36;;;;;;;;;;;17.00;91.10;;;;;;4452510;32;43772;-74
2022/05/15 02:12:17;;;;;;;;;;;17.00;91.10;;;;;;4451781;32;42826;-75
2022/05/15 02:15:01;;;;;;;;;;;17.00;91.10;;;;;;4438083;32;44684;-74
2022/05/15 02:17:39;;;;;;;;;;;17.00;91.10;;;;;;4452322;32;43089;-74
2022/05/15 02:20:20;;;;;;;;;;;17.00;91.10;;;;;;4438693;32;20032;-74
2022/05/15 02:22:59;;;;;;;;;;;17.00;91.10;;;;;;4451013;32;43755;-75
2022/05/15 02:25:40;;;;;;;;;;;17.00;91.10;;;;;;4451651;32;42550;-75
2022/05/15 02:28:18;;;;;;;;;;;17.00;91.10;;;;;;4452139;32;43358;-75
2022/05/15 02:30:59;;;;;;;;;;;16.90;91.00;;;;;;4452075;32;43194;-75
2022/05/15 02:33:31;;;;;;;;;;;16.90;91.00;;;;;;4437905;32;44281;-75
2022/05/15 02:36:09;;;;;;;;;;;16.90;91.00;;;;;;4437725;32;42285;-75
2022/05/15 02:38:47;;;;;;;;;;;16.90;91.10;;;;;;4451941;32;43738;-75
2022/05/15 02:41:28;;;;;;;;;;;16.90;91.40;;;;;;4451350;32;42522;-75
2022/05/15 02:44:06;;;;;;;;;;;16.90;91.00;;;;;;4437229;32;44775;-74
2022/05/15 02:46:50;;;;;;;;;;;16.90;91.00;;;;;;4437755;32;42848;-74
2022/05/15 02:52:18;;;;;;;;;;;16.80;91.10;;;;;;4451652;32;20010;-74
2022/05/15 02:54:56;;;;;;;;;;;16.80;91.10;;;;;;4451804;32;43771;-75
2022/05/15 02:57:35;;;;;;;;;;;16.80;91.20;;;;;;4437642;32;44171;-74
2022/05/15 03:00:13;;;;;;;;;;;16.80;91.10;;;;;;4451608;32;44238;-74
2022/05/15 03:02:55;;;;;;;;;;;16.80;91.10;;;;;;4451571;32;43669;-74
2022/05/15 03:05:41;;;;;;;;;;;16.80;91.00;;;;;;4438538;32;43725;-75
2022/05/15 03:08:12;;;;;;;;;;;16.70;91.20;;;;;;4437505;32;44327;-75
2022/05/15 03:10:50;;;;;;;;;;;16.70;91.10;;;;;;4451501;32;43979;-74
2022/05/15 03:13:31;;;;;;;;;;;16.70;91.20;;;;;;4451366;32;42817;-75
2022/05/15 03:16:06;;;;;;;;;;;16.70;91.20;;;;;;4437029;32;42892;-74
2022/05/15 03:18:51;;;;;;;;;;;16.70;91.20;;;;;;4437344;32;43925;-74
2022/05/15 03:21:30;;;;;;;;;;;16.60;91.20;;;;;;4451328;32;43864;-75
2022/05/15 03:24:12;;;;;;;;;;;16.60;91.20;;;;;;4452040;32;23051;-74
2022/05/15 03:26:52;;;;;;;;;;;16.60;91.30;;;;;;4436940;32;44608;-74
2022/05/15 03:29:30;;;;;;;;;;;16.60;91.20;;;;;;4451058;32;43929;-75
2022/05/15 03:32:09;;;;;;;;;;;16.50;91.10;;;;;;4451255;32;44234;-74
2022/05/15 03:34:47;;;;;;;;;;;16.50;91.30;;;;;;4437506;32;45926;-74
2022/05/15 03:37:23;;;;;;;;;;;16.50;91.20;;;;;;4436890;32;43729;-74
2022/05/15 03:39:54;;;;;;;;;;;16.40;91.10;;;;;;4437250;32;42895;-75
2022/05/15 03:42:29;;;;;;;;;;;16.40;91.00;;;;;;4450679;32;42901;-75
2022/05/15 03:45:10;;;;;;;;;;;16.40;91.10;;;;;;4436647;32;42622;-75
2022/05/15 03:47:52;;;;;;;;;;;16.40;91.30;;;;;;4437293;32;43105;-74
2022/05/15 03:50:30;;;;;;;;;;;16.40;91.40;;;;;;4450656;32;43730;-74
2022/05/15 03:53:06;;;;;;;;;;;16.40;91.30;;;;;;4451023;32;44270;-74
2022/05/15 03:55:44;;;;;;;;;;;16.40;91.30;;;;;;4438118;32;20036;-74
2022/05/15 03:58:20;;;;;;;;;;;16.30;91.50;;;;;;4450554;32;43454;-75
2022/05/15 04:00:58;;;;;;;;;;;16.30;91.30;;;;;;4451015;32;43108;-74
2022/05/15 04:03:36;;;;;;;;;;;16.30;91.50;;;;;;4451518;32;42537;-75
2022/05/15 04:06:03;;;;;;;;;;;16.30;91.60;;;;;;4454357;32;44015;-75
2022/05/15 04:08:39;;;;;;;;;;;16.30;91.60;;;;;;4440254;32;43071;-74
2022/05/15 04:11:17;;;;;;;;;;;16.40;91.70;;;;;;4439717;32;42828;-74
2022/05/15 04:13:58;;;;;;;;;;;16.40;91.70;;;;;;4453965;32;44816;-75
2022/05/15 04:16:39;;;;;;;;;;;16.30;91.60;;;;;;4439888;32;42924;-74
2022/05/15 04:19:21;;;;;;;;;;;16.40;91.70;;;;;;4453606;32;43259;-75
2022/05/15 04:22:02;;;;;;;;;;;16.30;91.70;;;;;;4453975;32;43917;-76
2022/05/15 04:24:43;;;;;;;;;;;16.30;91.80;;;;;;4453464;32;42580;-74
2022/05/15 04:27:24;;;;;;;;;;;16.30;91.80;;;;;;4441125;32;20032;-75
2022/05/15 04:30:00;;;;;;;;;;;16.40;91.80;;;;;;4440022;32;43031;-75
2022/05/15 04:32:41;;;;;;;;;;;16.30;91.90;;;;;;4453342;32;42141;-75
2022/05/15 04:35:22;;;;;;;;;;;16.30;91.90;;;;;;4439497;32;44126;-75
2022/05/15 04:37:51;;;;;;;;;;;16.30;91.90;;;;;;4439421;32;43027;-75
2022/05/15 04:40:26;;;;;;;;;;;16.30;91.90;;;;;;4453676;32;44726;-74
2022/05/15 04:43:02;;;;;;;;;;;16.30;92.00;;;;;;4438898;32;44251;-75
2022/05/15 04:45:32;;;;;;;;;;;16.30;92.10;;;;;;4453510;32;43019;-75
2022/05/15 04:48:05;;;;;;;;;;;16.30;92.20;;;;;;4453227;32;44345;-75
2022/05/15 04:50:42;;;;;;;;;;;16.20;92.20;;;;;;4453542;32;43222;-74
2022/05/15 04:53:23;;;;;;;;;;;16.20;92.20;;;;;;4439858;32;42975;-75
2022/05/15 04:55:56;;;;;;;;;;;16.20;92.30;;;;;;4439654;32;44273;-75
2022/05/15 04:58:32;;;;;;;;;;;16.20;92.40;;;;;;4439590;32;45563;-74
2022/05/15 05:01:07;;;;;;;;;;;16.20;92.50;;;;;;4453049;32;43213;-74
2022/05/15 05:03:37;;;;;;;;;;;16.20;92.60;;;;;;4453414;32;43613;-76
2022/05/15 05:06:15;;;;;;;;;;;16.20;92.70;;;;;;4453233;32;43161;-76
2022/05/15 05:08:53;;;;;;;;;;;16.10;92.70;;;;;;4439383;32;42919;-75
2022/05/15 05:11:31;;;;;;;;;;;16.20;92.90;;;;;;4438792;32;43860;-75
2022/05/15 05:14:12;;;;;;;;;;;16.10;92.90;;;;;;4438692;32;43755;-75
2022/05/15 05:16:51;;;;;;;;;;;16.10;93.10;;;;;;4453141;32;44320;-76
2022/05/15 05:19:29;;;;;;;;;;;16.00;93.20;;;;;;4453210;32;43602;-76
2022/05/15 05:22:04;;;;;;;;;;;16.00;93.40;;;;;;4452606;32;42866;-76
2022/05/15 05:24:42;;;;;;;;;;;16.00;93.60;;;;;;4439132;32;43021;-75
2022/05/15 05:27:20;;;;;;;;;;;15.90;93.80;;;;;;4438821;32;43889;-76
2022/05/15 05:29:50;;;;;;;;;;;15.90;93.80;;;;;;4453109;32;43138;-76
2022/05/15 05:32:25;;;;;;;;;;;15.90;94.00;;;;;;4438908;32;43954;-76
2022/05/15 05:35:03;;;;;;;;;;;15.90;94.10;;;;;;4439029;32;42984;-75
2022/05/15 05:37:41;;;;;;;;;;;15.90;94.10;;;;;;4452845;32;43721;-75
2022/05/15 05:40:20;;;;;;;;;;;15.80;94.20;;;;;;4452808;32;43674;-74
2022/05/15 05:42:58;;;;;;;;;;;15.80;94.30;;;;;;4452428;32;42090;-72
2022/05/15 05:45:37;;;;;;;;;;;15.80;94.30;;;;;;4452158;32;42561;-74
2022/05/15 05:48:09;;;;;;;;;;;15.90;94.40;;;;;;4452356;32;42646;-74
2022/05/15 05:50:48;;;;;;;;;;;15.90;94.60;;;;;;4438948;32;43668;-74
2022/05/15 05:53:26;;;;;;;;;;;15.90;94.60;;;;;;4438660;32;43644;-74
2022/05/15 05:55:53;;;;;;;;;;;15.90;94.70;;;;;;4438195;32;43700;-75
2022/05/15 05:58:23;;;;;;;;;;;15.90;94.70;;;;;;4452613;32;43274;-74
2022/05/15 06:00:52;;;;;;;;;;;15.90;94.80;;;;;;4451900;32;42886;-75
2022/05/15 06:06:22;;;;;;;;;;;16.00;95.00;;;;;;4452385;32;44231;-74
2022/05/15 06:08:58;;;;;;;;;;;16.00;95.20;;;;;;4438336;32;41947;-75
2022/05/15 06:11:30;;;;;;;;;;;16.00;95.30;;;;;;4452337;32;43716;-74
2022/05/15 06:14:06;;;;;;;;;;;16.10;95.30;;;;;;4437953;32;42562;-74
2022/05/15 06:16:48;;;;;;;;;;;16.10;95.30;;;;;;4452329;32;43702;-75
2022/05/15 06:19:15;;;;;;;;;;;16.10;95.30;;;;;;4452222;32;42938;-75
2022/05/15 06:21:47;;;;;;;;;;;16.20;95.30;;;;;;4451807;32;43125;-75
2022/05/15 06:24:25;;;;;;;;;;;16.20;95.40;;;;;;4437966;32;42979;-74
2022/05/15 06:27:03;;;;;;;;;;;16.30;95.60;;;;;;4437367;32;43747;-74
2022/05/15 06:29:42;;;;;;;;;;;16.30;95.70;;;;;;4452046;32;43189;-74
2022/05/15 06:32:26;;;;;;;;;;;16.30;95.70;;;;;;4438883;32;20009;-74
2022/05/15 06:35:02;;;;;;;;;;;16.40;95.70;;;;;;4452050;32;43087;-75
2022/05/15 06:37:34;;;;;;;;;;;16.30;95.60;;;;;;4451444;32;43667;-74
2022/05/15 06:40:09;;;;;;;;;;;16.40;95.60;;;;;;4438233;32;42472;-75
2022/05/15 06:42:46;;;;;;;;;;;16.40;95.40;;;;;;4437337;32;45366;-74
2022/05/15 06:45:17;;;;;;;;;;;16.50;95.60;;;;;;4451895;32;43431;-74
2022/05/15 06:47:50;;;;;;;;;;;16.50;95.70;;;;;;4451777;32;43335;-74
2022/05/15 06:50:17;;;;;;;;;;;16.50;95.80;;;;;;4451790;32;42180;-74
2022/05/15 06:52:48;;;;;;;;;;;16.50;95.90;;;;;;4451285;32;42559;-75
2022/05/15 06:55:27;;;;;;;;;;;16.60;95.90;;;;;;4451504;32;43661;-74
2022/05/15 06:57:58;;;;;;;;;;;16.60;95.70;;;;;;4437225;32;43115;-74
2022/05/15 07:00:30;;;;;;;;;;;16.60;95.70;;;;;;4451084;32;43427;-74
2022/05/15 07:03:03;;;;;;;;;;;16.60;95.70;;;;;;4451984;32;20009;-75
2022/05/15 07:05:36;;;;;;;;;;;16.60;95.70;;;;;;4451030;32;42382;-75
2022/05/15 07:08:03;;;;;;;;;;;16.70;95.60;;;;;;4451208;32;42863;-74
2022/05/15 07:10:30;;;;;;;;;;;16.70;95.60;;;;;;4437591;32;44295;-75
2022/05/15 07:13:00;;;;;;;;;;;16.70;95.50;;;;;;4437614;32;43749;-75
2022/05/15 07:15:28;;;;;;;;;;;16.70;95.30;;;;;;4451346;32;42886;-75
2022/05/15 07:18:03;;;;;;;;;;;16.70;95.50;;;;;;4437254;32;42925;-74
2022/05/15 07:20:35;;;;;;;;;;;16.80;95.60;;;;;;4437542;32;43948;-74
2022/05/15 07:23:05;;;;;;;;;;;16.80;95.70;;;;;;4451145;32;43602;-74
2022/05/15 07:25:37;;;;;;;;;;;16.80;95.60;;;;;;4450988;32;44849;-75
2022/05/15 07:28:07;;;;;;;;;;;16.80;95.60;;;;;;4437368;32;42844;-75
2022/05/15 07:30:40;;;;;;;;;;;16.90;95.90;;;;;;4436919;32;42472;-75
2022/05/15 07:33:10;;;;;;;;;;;16.90;96.20;;;;;;4451692;32;19995;-75
2022/05/15 07:35:37;;;;;;;;;;;16.90;95.50;;;;;;4450932;32;43163;-75
2022/05/15 07:38:05;;;;;;;;;;;16.90;95.60;;;;;;4451056;32;43063;-75
2022/05/15 07:40:37;;;;;;;;;;;17.00;95.50;;;;;;4450719;32;42938;-75
2022/05/15 07:43:13;;;;;;;;;;;17.00;95.40;;;;;;4436580;32;44906;-74
2022/05/15 07:45:46;;;;;;;;;;;17.00;95.40;;;;;;4450819;32;43708;-75
2022/05/15 07:48:15;;;;;;;;;;;17.00;95.40;;;;;;4450617;32;42927;-75
2022/05/15 07:50:43;;;;;;;;;;;17.00;95.30;;;;;;4450569;32;43718;-75
2022/05/15 07:53:12;;;;;;;;;;;17.10;95.50;;;;;;4437384;32;42995;-75
2022/05/15 07:55:43;;;;;;;;;;;17.10;95.50;;;;;;4450731;32;43928;-75
2022/05/15 07:58:12;;;;;;;;;;;17.20;95.40;;;;;;4450634;32;45789;-76
2022/05/15 08:00:39;;;;;;;;;;;17.20;95.60;;;;;;4450886;32;43982;-75
2022/05/15 08:03:11;;;;;;;;;;;17.20;95.30;;;;;;4437353;32;37804;-75
2022/05/15 08:08:28;;;;;;;;;;;17.20;95.20;;;;;;4450680;32;44190;-75
2022/05/15 08:11:01;;;;;;;;;;;17.30;95.20;;;;;;4436574;32;43694;-75
2022/05/15 08:13:32;;;;;;;;;;;17.30;95.40;;;;;;4437118;32;44225;-75
2022/05/15 08:16:09;;;;;;;;;;;17.30;95.60;;;;;;4450334;32;45691;-75
2022/05/15 08:24:09;;;;;;;;;;;17.40;95.40;;;;;;4450541;32;42446;-75
2022/05/15 08:26:38;;;;;;;;;;;17.50;95.30;;;;;;4450317;32;43725;-75
2022/05/15 08:29:11;;;;;;;;;;;17.50;95.30;;;;;;4450339;32;43344;-75
2022/05/15 08:31:42;;;;;;;;;;;17.50;95.50;;;;;;4450595;32;42968;-75
2022/05/15 08:34:11;;;;;;;;;;;17.60;95.50;;;;;;4437826;32;19995;-75
2022/05/15 08:36:44;;;;;;;;;;;17.60;95.50;;;;;;4450750;32;44023;-75
2022/05/15 08:39:18;;;;;;;;;;;17.60;95.70;;;;;;4450724;32;43098;-75
2022/05/15 08:41:50;;;;;;;;;;;17.70;95.40;;;;;;4436825;32;43405;-75
2022/05/15 08:44:19;;;;;;;;;;;17.70;95.10;;;;;;4451086;32;43730;-75
2022/05/15 08:47:02;;;;;;;;;;;17.70;95.60;;;;;;4449400;32;42117;-75
2022/05/15 08:49:32;;;;;;;;;;;17.80;95.70;;;;;;4437836;32;43010;-76
2022/05/15 08:52:34;;;;;;;;;;;17.80;95.90;;;;;;4439779;32;43490;-75
2022/05/15 08:55:04;;;;;;;;;;;17.90;95.60;;;;;;4439788;32;42451;-75
2022/05/15 08:57:53;;;;;;;;;;;17.80;95.40;;;;;;4453250;32;42947;-75
2022/05/15 09:00:31;;;;;;;;;;;17.90;95.50;;;;;;4439532;32;43109;-76
2022/05/15 09:03:06;;;;;;;;;;;17.90;95.50;;;;;;4453312;32;42102;-74
2022/05/15 09:05:41;;;;;;;;;;;17.90;95.70;;;;;;4452821;32;42510;-74
2022/05/15 09:08:23;;;;;;;;;;;18.00;95.50;;;;;;4452916;32;43756;-76
2022/05/15 09:10:58;;;;;;;;;;;18.00;95.00;;;;;;4439746;32;43593;-76
2022/05/15 09:13:39;;;;;;;;;;;18.10;95.10;;;;;;4453174;32;45718;-74
2022/05/15 09:16:13;;;;;;;;;;;18.10;95.00;;;;;;4453196;32;42781;-74
2022/05/15 09:18:57;;;;;;;;;;;18.10;95.00;;;;;;4439739;32;44869;-75
2022/05/15 09:21:35;;;;;;;;;;;18.20;95.10;;;;;;4439234;32;43102;-74
2022/05/15 09:24:12;;;;;;;;;;;18.20;95.30;;;;;;4438648;32;42919;-74
2022/05/15 09:26:53;;;;;;;;;;;18.20;95.40;;;;;;4452923;32;44241;-74
2022/05/15 09:29:33;;;;;;;;;;;18.20;95.30;;;;;;4452936;32;43811;-75
2022/05/15 09:32:13;;;;;;;;;;;18.30;94.80;;;;;;4438949;32;43834;-75
2022/05/15 09:34:54;;;;;;;;;;;18.40;94.60;;;;;;4435496;32;43687;-74
2022/05/15 09:43:51;;;;;;;;;;;18.50;94.00;;;;;;4437285;32;44251;-75
2022/05/15 09:46:32;;;;;;;;;;;18.50;94.20;;;;;;4436800;32;42935;-75
2022/05/15 09:49:10;;;;;;;;;;;18.50;94.10;;;;;;4436021;32;44958;-75
2022/05/15 09:51:53;;;;;;;;;;;18.50;94.00;;;;;;4436017;32;43518;-75
2022/05/15 09:54:40;;;;;;;;;;;18.50;94.10;;;;;;4437176;32;43067;-76
2022/05/15 09:57:26;;;;;;;;;;;18.50;93.90;;;;;;4436163;32;43815;-75
2022/05/15 10:00:07;;;;;;;;;;;18.60;93.50;;;;;;4437062;32;42997;-75
2022/05/15 10:02:52;;;;;;;;;;;18.60;93.70;;;;;;4435466;32;42868;-75
2022/05/15 10:05:36;;;;;;;;;;;18.60;93.40;;;;;;4435583;32;42876;-75
2022/05/15 10:08:12;;;;;;;;;;;18.60;93.60;;;;;;4436591;32;19987;-75
2022/05/15 10:10:45;;;;;;;;;;;18.70;93.30;;;;;;4435905;32;42530;-74
2022/05/15 10:13:38;;;;;;;;;;;18.70;93.50;;;;;;4436884;32;45922;-75
2022/05/15 10:16:27;;;;;;;;;;;18.70;93.40;;;;;;4434123;32;42457;-75
2022/05/15 10:19:00;;;;;;;;;;;18.70;93.00;;;;;;4436519;32;42105;-75
2022/05/15 10:21:50;;;;;;;;;;;18.80;92.30;;;;;;4436283;32;41738;-76
2022/05/15 10:24:25;;;;;;;;;;;18.80;92.60;;;;;;4436397;32;42473;-75
2022/05/15 10:27:04;;;;;;;;;;;18.80;92.80;;;;;;4436729;32;45070;-75
2022/05/15 10:29:55;;;;;;;;;;;18.80;92.40;;;;;;4435542;32;43719;-75
2022/05/15 10:32:26;;;;;;;;;;;18.90;92.10;;;;;;4435923;32;44100;-75
2022/05/15 10:35:04;;;;;;;;;;;18.90;92.30;;;;;;4435606;32;43667;-75
2022/05/15 10:37:46;;;;;;;;;;;19.00;91.80;;;;;;4435408;32;44344;-75
2022/05/15 10:40:26;;;;;;;;;;;19.10;91.70;;;;;;4436738;32;20472;-75
2022/05/15 10:43:21;;;;;;;;;;;19.10;91.80;;;;;;4436003;32;42377;-75
2022/05/15 10:46:18;;;;;;;;;;;19.10;92.20;;;;;;4435990;32;42090;-74
2022/05/15 10:49:00;;;;;;;;;;;19.10;91.90;;;;;;4436377;32;43049;-75
2022/05/15 10:51:47;;;;;;;;;;;19.20;91.50;;;;;;4436570;32;45551;-75
2022/05/15 10:58:14;;;;;;;;;;;19.30;91.10;;;;;;4403892;32;45732;-76
2022/05/15 11:00:54;;;;;;;;;;;19.30;91.40;;;;;;4436187;32;43887;-75
2022/05/15 11:03:33;;;;;;;;;;;19.20;91.50;;;;;;4436117;32;44202;-76
2022/05/15 11:06:33;;;;;;;;;;;19.20;91.70;;;;;;4436025;32;43682;-76
2022/05/15 11:09:37;;;;;;;;;;;19.20;91.40;;;;;;4436018;32;43859;-76
2022/05/15 11:12:29;;;;;;;;;;;19.30;91.50;;;;;;4370537;32;44292;-76
2022/05/15 11:14:59;;;;;;;;;;;19.30;91.50;;;;;;4435889;32;42612;-78
2022/05/15 11:17:49;;;;;;;;;;;19.30;91.50;;;;;;4422105;32;42624;-76
2022/05/15 11:20:31;;;;;;;;;;;19.40;90.90;;;;;;4435536;32;44052;-76
2022/05/15 11:23:14;;;;;;;;;;;19.40;91.00;;;;;;4422190;32;44306;-76
2022/05/15 11:25:51;;;;;;;;;;;19.50;90.90;;;;;;4435908;32;43477;-77
2022/05/15 11:28:55;;;;;;;;;;;19.60;91.00;;;;;;4435758;32;45764;-77
2022/05/15 11:31:36;;;;;;;;;;;19.60;91.00;;;;;;4435674;32;44010;-76
2022/05/15 11:34:07;;;;;;;;;;;19.70;90.60;;;;;;4435952;32;43737;-78
2022/05/15 11:36:46;;;;;;;;;;;19.90;90.00;;;;;;4422078;32;43191;-77
2022/05/15 11:39:26;;;;;;;;;;;19.90;89.80;;;;;;4435697;32;45811;-76
2022/05/15 11:42:14;;;;;;;;;;;19.90;90.30;;;;;;4435971;32;19996;-78
2022/05/15 11:44:53;;;;;;;;;;;19.90;89.70;;;;;;4421496;32;42833;-77
2022/05/15 11:47:34;;;;;;;;;;;19.90;89.10;;;;;;4435777;32;43610;-77
2022/05/15 11:50:14;;;;;;;;;;;20.00;90.10;;;;;;4435506;32;42545;-77
2022/05/15 11:52:53;;;;;;;;;;;20.20;87.80;;;;;;4435585;32;42832;-77
2022/05/15 11:55:36;;;;;;;;;;;20.30;87.80;;;;;;4421631;32;45119;-77
2022/05/15 11:58:10;;;;;;;;;;;20.30;87.70;;;;;;4422105;32;43702;-79
2022/05/15 12:00:42;;;;;;;;;;;20.40;87.00;;;;;;4421650;32;43190;-78
2022/05/15 12:03:38;;;;;;;;;;;20.40;88.00;;;;;;4435658;32;43693;-77
2022/05/15 12:06:14;;;;;;;;;;;20.40;87.90;;;;;;4367227;32;42242;-78
2022/05/15 12:08:54;;;;;;;;;;;20.30;88.20;;;;;;4421943;32;44066;-77
2022/05/15 12:11:36;;;;;;;;;;;20.30;88.80;;;;;;4421719;32;43986;-78
2022/05/15 12:14:38;;;;;;;;;;;20.30;89.10;;;;;;4435632;32;42562;-78
2022/05/15 12:17:31;;;;;;;;;;;20.30;88.40;;;;;;4395552;32;43900;-78
2022/05/15 12:20:13;;;;;;;;;;;20.30;87.40;;;;;;4435372;32;44066;-78
2022/05/15 12:23:01;;;;;;;;;;;20.30;86.40;;;;;;4421882;32;42901;-78
2022/05/15 12:25:31;;;;;;;;;;;20.40;86.10;;;;;;4398352;32;44419;-77
2022/05/15 12:31:12;;;;;;;;;;;20.60;85.20;;;;;;4438253;32;43862;-78
2022/05/15 12:34:25;;;;;;;;;;;20.70;86.20;;;;;;4437846;32;46130;-76
2022/05/15 12:37:01;;;;;;;;;;;20.70;86.60;;;;;;4434858;32;45613;-79
2022/05/15 12:39:41;;;;;;;;;;;20.60;86.90;;;;;;4437691;32;44890;-78
2022/05/15 12:42:18;;;;;;;;;;;20.60;86.90;;;;;;4437752;32;43831;-81
2022/05/15 12:45:11;;;;;;;;;;;20.80;86.20;;;;;;4424166;32;44291;-81
2022/05/15 12:47:49;;;;;;;;;;;20.90;85.70;;;;;;4437814;32;44309;-78
2022/05/15 12:50:20;;;;;;;;;;;20.90;85.80;;;;;;4424321;32;44279;-79
2022/05/15 12:52:58;;;;;;;;;;;20.90;84.10;;;;;;4423859;32;44054;-78
2022/05/15 12:55:39;;;;;;;;;;;21.00;85.10;;;;;;4424240;32;43474;-82
2022/05/15 12:58:17;;;;;;;;;;;21.00;84.90;;;;;;4424335;32;44358;-77
2022/05/15 13:00:51;;;;;;;;;;;21.00;85.70;;;;;;4424058;32;45990;-78
2022/05/15 13:03:27;;;;;;;;;;;20.90;85.40;;;;;;4424197;32;42509;-75
2022/05/15 13:06:05;;;;;;;;;;;20.90;85.90;;;;;;4437828;32;44107;-74
2022/05/15 13:08:55;;;;;;;;;;;20.90;85.50;;;;;;4437293;32;43767;-79
2022/05/15 13:11:34;;;;;;;;;;;21.00;85.20;;;;;;4424062;32;46090;-78
2022/05/15 13:14:12;;;;;;;;;;;20.90;85.20;;;;;;4438502;32;20033;-77
2022/05/15 13:16:44;;;;;;;;;;;21.00;85.60;;;;;;4423863;32;44265;-79
2022/05/15 13:19:18;;;;;;;;;;;21.00;84.70;;;;;;4437735;32;42617;-80
2022/05/15 13:21:49;;;;;;;;;;;21.00;84.90;;;;;;4423739;32;43329;-76
2022/05/15 13:24:23;;;;;;;;;;;21.00;84.80;;;;;;4423681;32;43659;-79
2022/05/15 13:27:05;;;;;;;;;;;21.10;84.80;;;;;;4437529;32;46117;-79
2022/05/15 13:29:37;;;;;;;;;;;21.10;84.50;;;;;;4437455;32;42946;-74
2022/05/15 13:32:13;;;;;;;;;;;21.10;84.60;;;;;;4437350;32;42695;-81
2022/05/15 13:34:49;;;;;;;;;;;21.20;84.50;;;;;;4437251;32;44282;-80
2022/05/15 13:37:31;;;;;;;;;;;21.20;83.30;;;;;;4437181;32;44135;-80
2022/05/15 13:43:22;;;;;;;;;;;21.20;85.00;;;;;;4436880;32;46167;-80
2022/05/15 13:46:06;;;;;;;;;;;21.20;85.60;;;;;;4423848;32;20371;-80
2022/05/15 13:49:11;;;;;;;;;;;21.20;84.80;;;;;;4423454;32;43224;-81
2022/05/15 13:51:50;;;;;;;;;;;21.20;84.00;;;;;;4397452;32;43488;-80
2022/05/15 13:54:27;;;;;;;;;;;21.30;84.50;;;;;;4437316;32;44210;-80
2022/05/15 13:57:03;;;;;;;;;;;21.30;84.40;;;;;;4436874;32;43402;-80
2022/05/15 13:59:38;;;;;;;;;;;21.30;84.20;;;;;;4423557;32;43224;-80
2022/05/15 14:02:15;;;;;;;;;;;21.30;84.80;;;;;;4423116;32;42806;-80
2022/05/15 14:04:54;;;;;;;;;;;21.40;84.80;;;;;;4437188;32;45805;-80
2022/05/15 14:07:40;;;;;;;;;;;21.40;85.10;;;;;;4436784;32;44041;-80
2022/05/15 14:10:39;;;;;;;;;;;21.50;84.80;;;;;;4423099;32;44761;-80
2022/05/15 14:13:10;;;;;;;;;;;21.40;84.90;;;;;;4436914;32;43315;-80
2022/05/15 14:15:48;;;;;;;;;;;21.40;84.80;;;;;;4436755;32;44804;-81
2022/05/15 14:18:38;;;;;;;;;;;21.50;85.30;;;;;;4436367;32;42769;-81
2022/05/15 14:21:27;;;;;;;;;;;21.50;84.40;;;;;;4436799;32;45946;-81
2022/05/15 14:24:02;;;;;;;;;;;21.50;84.80;;;;;;4422755;32;43336;-81
2022/05/15 14:26:37;;;;;;;;;;;21.50;84.60;;;;;;4436955;32;44111;-82
2022/05/15 14:29:04;;;;;;;;;;;21.50;84.70;;;;;;4436816;32;44176;-82
2022/05/15 14:31:43;;;;;;;;;;;21.60;84.40;;;;;;4422324;32;45021;-81
2022/05/15 14:34:10;;;;;;;;;;;21.60;85.10;;;;;;4436432;32;45522;-82
2022/05/15 14:36:41;;;;;;;;;;;21.60;84.70;;;;;;4422544;32;45278;-80
2022/05/15 14:39:18;;;;;;;;;;;21.60;84.50;;;;;;4422937;32;44984;-81
2022/05/15 14:41:48;;;;;;;;;;;21.70;84.90;;;;;;4435918;32;44011;-81
2022/05/15 14:44:16;;;;;;;;;;;21.70;85.30;;;;;;4436349;32;43633;-80
2022/05/15 14:46:49;;;;;;;;;;;21.60;85.40;;;;;;4436345;32;19995;-82
2022/05/15 14:49:16;;;;;;;;;;;21.70;85.40;;;;;;4422563;32;44837;-81
2022/05/15 14:51:55;;;;;;;;;;;21.80;85.50;;;;;;4423220;32;44190;-80
2022/05/15 14:54:32;;;;;;;;;;;21.80;84.50;;;;;;4422418;32;45779;-81
2022/05/15 14:57:06;;;;;;;;;;;21.90;84.40;;;;;;4436322;32;43512;-80
2022/05/15 14:59:43;;;;;;;;;;;21.90;83.40;;;;;;4422406;32;44012;-81
2022/05/15 15:02:19;;;;;;;;;;;21.90;83.40;;;;;;4422423;32;45885;-80
2022/05/15 15:04:52;;;;;;;;;;;22.00;83.90;;;;;;4422534;32;44237;-80
2022/05/15 15:07:24;;;;;;;;;;;22.10;84.30;;;;;;4435983;32;42805;-80
2022/05/15 15:09:51;;;;;;;;;;;22.00;83.70;;;;;;4435906;32;43515;-80
2022/05/15 15:12:27;;;;;;;;;;;22.10;84.00;;;;;;4422522;32;44200;-80
2022/05/15 15:14:54;;;;;;;;;;;22.10;83.50;;;;;;4436345;32;43932;-80
2022/05/15 15:17:29;;;;;;;;;;;22.20;82.80;;;;;;4436019;32;45050;-80
2022/05/15 15:19:56;;;;;;;;;;;22.20;83.00;;;;;;4435817;32;43327;-79
2022/05/15 15:22:25;;;;;;;;;;;22.20;83.20;;;;;;4435852;32;43160;-79
2022/05/15 15:25:00;;;;;;;;;;;22.30;81.50;;;;;;4421944;32;44157;-79
2022/05/15 15:27:33;;;;;;;;;;;22.30;81.30;;;;;;4435752;32;42543;-80
2022/05/15 15:30:02;;;;;;;;;;;22.30;81.90;;;;;;4421711;32;45784;-80
2022/05/15 15:32:35;;;;;;;;;;;22.30;82.60;;;;;;4421494;32;42834;-80
2022/05/15 15:35:02;;;;;;;;;;;22.30;82.20;;;;;;4435940;32;44036;-80
2022/05/15 15:40:15;;;;;;;;;;;22.30;81.90;;;;;;4435817;32;44857;-80
2022/05/15 15:42:42;;;;;;;;;;;22.30;80.70;;;;;;4435349;32;43468;-79
2022/05/15 15:45:10;;;;;;;;;;;22.40;79.60;;;;;;4435527;32;45758;-80
2022/05/15 15:47:37;;;;;;;;;;;22.40;78.80;;;;;;4436403;32;20006;-80
2022/05/15 15:50:05;;;;;;;;;;;22.50;79.10;;;;;;4435620;32;44758;-81